sensor_id;sensor_type;location;lat;lon;timestamp;P1;durP1;ratioP1;P2;durP2;ratioP2
64615;SDS011;51027;42.162;24.754;2022-10-30T00:01:10;19.48;;;9.07;;
64615;SDS011;51027;42.162;24.754;2022-10-30T00:03:35;20.08;;;9.50;;
64615;SDS011;51027;42.162;24.754;2022-10-30T00:06:02;19.38;;;9.75;;
64615;SDS011;51027;42.162;24.754;2022-10-30T00:08:37;23.98;;;10.50;;
64615;SDS011;51027;42.162;24.754;2022-10-30T00:11:09;20.15;;;9.82;;
64615;SDS011;51027;42.162;24.754;2022-10-30T00:13:36;20.23;;;9.50;;
64615;SDS011;51027;42.162;24.754;2022-10-30T00:16:03;19.23;;;8.27;;
64615;SDS011;51027;42.162;24.754;2022-10-30T00:18:31;19.65;;;8.57;;
64615;SDS011;51027;42.162;24.754;2022-10-30T00:21:03;22.73;;;9.40;;
64615;SDS011;51027;42.162;24.754;2022-10-30T00:23:30;20.85;;;8.68;;
64615;SDS011;51027;42.162;24.754;2022-10-30T00:25:56;19.00;;;9.60;;
64615;SDS011;51027;42.162;24.754;2022-10-30T00:28:32;22.15;;;9.25;;
64615;SDS011;51027;42.162;24.754;2022-10-30T00:31:01;20.40;;;8.95;;
64615;SDS011;51027;42.162;24.754;2022-10-30T00:33:28;21.55;;;9.68;;
64615;SDS011;51027;42.162;24.754;2022-10-30T00:35:54;20.75;;;9.27;;
64615;SDS011;51027;42.162;24.754;2022-10-30T00:38:20;21.38;;;8.48;;
64615;SDS011;51027;42.162;24.754;2022-10-30T00:40:46;22.33;;;9.88;;
64615;SDS011;51027;42.162;24.754;2022-10-30T00:46:14;18.75;;;8.23;;
64615;SDS011;51027;42.162;24.754;2022-10-30T00:48:46;18.40;;;7.68;;
64615;SDS011;51027;42.162;24.754;2022-10-30T00:51:16;18.48;;;7.45;;
64615;SDS011;51027;42.162;24.754;2022-10-30T00:53:50;18.13;;;8.18;;
64615;SDS011;51027;42.162;24.754;2022-10-30T00:56:17;19.95;;;8.70;;
64615;SDS011;51027;42.162;24.754;2022-10-30T00:58:50;19.75;;;9.93;;
64615;SDS011;51027;42.162;24.754;2022-10-30T01:01:20;20.90;;;9.57;;
64615;SDS011;51027;42.162;24.754;2022-10-30T01:03:50;20.83;;;9.50;;
64615;SDS011;51027;42.162;24.754;2022-10-30T01:06:19;21.48;;;9.82;;
64615;SDS011;51027;42.162;24.754;2022-10-30T01:08:50;21.17;;;8.50;;
64615;SDS011;51027;42.162;24.754;2022-10-30T01:11:18;19.77;;;9.43;;
64615;SDS011;51027;42.162;24.754;2022-10-30T01:13:44;20.35;;;8.80;;
64615;SDS011;51027;42.162;24.754;2022-10-30T01:27:54;14.63;;;6.13;;
64615;SDS011;51027;42.162;24.754;2022-10-30T01:38:48;15.80;;;6.30;;
64615;SDS011;51027;42.162;24.754;2022-10-30T01:41:21;15.93;;;6.30;;
64615;SDS011;51027;42.162;24.754;2022-10-30T01:43:47;17.17;;;6.18;;
64615;SDS011;51027;42.162;24.754;2022-10-30T01:51:42;14.20;;;5.72;;
64615;SDS011;51027;42.162;24.754;2022-10-30T01:57:22;15.02;;;5.88;;
64615;SDS011;51027;42.162;24.754;2022-10-30T01:59:58;18.20;;;5.97;;
64615;SDS011;51027;42.162;24.754;2022-10-30T02:02:38;14.80;;;5.25;;
64615;SDS011;51027;42.162;24.754;2022-10-30T02:05:05;15.40;;;5.18;;
64615;SDS011;51027;42.162;24.754;2022-10-30T02:07:53;14.80;;;5.82;;
64615;SDS011;51027;42.162;24.754;2022-10-30T02:10:25;17.55;;;5.85;;
64615;SDS011;51027;42.162;24.754;2022-10-30T02:13:13;14.23;;;5.45;;
64615;SDS011;51027;42.162;24.754;2022-10-30T02:15:39;17.00;;;5.70;;
64615;SDS011;51027;42.162;24.754;2022-10-30T02:18:09;14.93;;;4.80;;
64615;SDS011;51027;42.162;24.754;2022-10-30T02:20:44;16.13;;;5.70;;
64615;SDS011;51027;42.162;24.754;2022-10-30T02:23:10;13.20;;;5.22;;
64615;SDS011;51027;42.162;24.754;2022-10-30T02:25:43;13.85;;;4.78;;
64615;SDS011;51027;42.162;24.754;2022-10-30T02:28:12;14.65;;;4.88;;
64615;SDS011;51027;42.162;24.754;2022-10-30T02:30:38;16.02;;;6.13;;
64615;SDS011;51027;42.162;24.754;2022-10-30T02:33:08;17.00;;;5.50;;
64615;SDS011;51027;42.162;24.754;2022-10-30T02:35:34;17.75;;;5.93;;
64615;SDS011;51027;42.162;24.754;2022-10-30T02:38:00;15.02;;;6.03;;
64615;SDS011;51027;42.162;24.754;2022-10-30T02:40:26;16.00;;;6.57;;
64615;SDS011;51027;42.162;24.754;2022-10-30T02:42:52;18.48;;;7.15;;
64615;SDS011;51027;42.162;24.754;2022-10-30T02:45:19;19.33;;;6.75;;
64615;SDS011;51027;42.162;24.754;2022-10-30T02:47:54;19.80;;;8.05;;
64615;SDS011;51027;42.162;24.754;2022-10-30T02:50:20;17.67;;;7.05;;
64615;SDS011;51027;42.162;24.754;2022-10-30T02:52:45;19.35;;;8.02;;
64615;SDS011;51027;42.162;24.754;2022-10-30T02:55:11;19.85;;;7.97;;
64615;SDS011;51027;42.162;24.754;2022-10-30T02:57:43;19.05;;;7.25;;
64615;SDS011;51027;42.162;24.754;2022-10-30T03:00:08;16.42;;;7.10;;
64615;SDS011;51027;42.162;24.754;2022-10-30T03:02:35;16.92;;;6.45;;
64615;SDS011;51027;42.162;24.754;2022-10-30T03:05:01;14.90;;;6.28;;
64615;SDS011;51027;42.162;24.754;2022-10-30T03:07:26;17.08;;;7.32;;
64615;SDS011;51027;42.162;24.754;2022-10-30T03:09:52;18.10;;;7.32;;
64615;SDS011;51027;42.162;24.754;2022-10-30T03:12:19;18.60;;;7.93;;
64615;SDS011;51027;42.162;24.754;2022-10-30T03:14:45;20.15;;;7.75;;
64615;SDS011;51027;42.162;24.754;2022-10-30T03:17:11;20.45;;;7.75;;
64615;SDS011;51027;42.162;24.754;2022-10-30T03:19:39;22.60;;;11.10;;
64615;SDS011;51027;42.162;24.754;2022-10-30T03:22:07;26.63;;;15.38;;
64615;SDS011;51027;42.162;24.754;2022-10-30T03:24:42;31.60;;;19.85;;
64615;SDS011;51027;42.162;24.754;2022-10-30T03:27:26;37.72;;;24.30;;
64615;SDS011;51027;42.162;24.754;2022-10-30T03:29:51;38.90;;;22.80;;
64615;SDS011;51027;42.162;24.754;2022-10-30T03:32:26;33.08;;;20.70;;
64615;SDS011;51027;42.162;24.754;2022-10-30T03:35:00;34.20;;;21.85;;
64615;SDS011;51027;42.162;24.754;2022-10-30T03:37:26;33.60;;;19.83;;
64615;SDS011;51027;42.162;24.754;2022-10-30T03:39:51;33.13;;;22.02;;
64615;SDS011;51027;42.162;24.754;2022-10-30T03:42:29;34.05;;;20.42;;
64615;SDS011;51027;42.162;24.754;2022-10-30T03:44:55;34.67;;;19.75;;
64615;SDS011;51027;42.162;24.754;2022-10-30T03:47:21;31.63;;;17.27;;
64615;SDS011;51027;42.162;24.754;2022-10-30T03:49:46;32.42;;;17.80;;
64615;SDS011;51027;42.162;24.754;2022-10-30T03:52:19;34.72;;;18.35;;
64615;SDS011;51027;42.162;24.754;2022-10-30T03:54:48;29.63;;;16.63;;
64615;SDS011;51027;42.162;24.754;2022-10-30T03:57:14;26.38;;;15.18;;
64615;SDS011;51027;42.162;24.754;2022-10-30T03:59:40;29.00;;;16.38;;
64615;SDS011;51027;42.162;24.754;2022-10-30T04:02:20;27.13;;;14.43;;
64615;SDS011;51027;42.162;24.754;2022-10-30T04:04:53;28.77;;;15.57;;
64615;SDS011;51027;42.162;24.754;2022-10-30T04:07:19;26.92;;;15.77;;
64615;SDS011;51027;42.162;24.754;2022-10-30T04:09:48;28.55;;;15.48;;
64615;SDS011;51027;42.162;24.754;2022-10-30T04:12:15;27.95;;;14.30;;
64615;SDS011;51027;42.162;24.754;2022-10-30T04:14:40;28.50;;;14.23;;
64615;SDS011;51027;42.162;24.754;2022-10-30T04:17:06;21.77;;;11.43;;
64615;SDS011;51027;42.162;24.754;2022-10-30T04:19:31;22.95;;;11.02;;
64615;SDS011;51027;42.162;24.754;2022-10-30T04:21:57;24.85;;;11.25;;
64615;SDS011;51027;42.162;24.754;2022-10-30T04:24:35;27.15;;;12.40;;
64615;SDS011;51027;42.162;24.754;2022-10-30T04:27:03;22.88;;;12.05;;
64615;SDS011;51027;42.162;24.754;2022-10-30T04:29:29;23.45;;;10.98;;
64615;SDS011;51027;42.162;24.754;2022-10-30T04:31:55;26.33;;;12.02;;
64615;SDS011;51027;42.162;24.754;2022-10-30T04:34:21;23.55;;;11.70;;
64615;SDS011;51027;42.162;24.754;2022-10-30T04:36:47;19.25;;;10.20;;
64615;SDS011;51027;42.162;24.754;2022-10-30T04:39:12;21.52;;;10.38;;
64615;SDS011;51027;42.162;24.754;2022-10-30T04:41:41;19.85;;;10.38;;
64615;SDS011;51027;42.162;24.754;2022-10-30T04:44:06;22.27;;;10.05;;
64615;SDS011;51027;42.162;24.754;2022-10-30T04:46:35;18.73;;;8.75;;
64615;SDS011;51027;42.162;24.754;2022-10-30T04:49:00;20.58;;;8.77;;
64615;SDS011;51027;42.162;24.754;2022-10-30T04:51:29;23.40;;;11.23;;
64615;SDS011;51027;42.162;24.754;2022-10-30T04:53:54;25.52;;;13.88;;
64615;SDS011;51027;42.162;24.754;2022-10-30T04:56:20;28.42;;;15.13;;
64615;SDS011;51027;42.162;24.754;2022-10-30T04:58:45;32.58;;;19.08;;
64615;SDS011;51027;42.162;24.754;2022-10-30T05:01:11;46.90;;;26.73;;
64615;SDS011;51027;42.162;24.754;2022-10-30T05:03:37;48.55;;;34.65;;
64615;SDS011;51027;42.162;24.754;2022-10-30T05:06:06;60.42;;;39.30;;
64615;SDS011;51027;42.162;24.754;2022-10-30T05:08:42;62.72;;;40.72;;
64615;SDS011;51027;42.162;24.754;2022-10-30T05:11:08;56.65;;;34.72;;
64615;SDS011;51027;42.162;24.754;2022-10-30T05:13:33;50.38;;;31.27;;
64615;SDS011;51027;42.162;24.754;2022-10-30T05:15:59;46.25;;;26.48;;
64615;SDS011;51027;42.162;24.754;2022-10-30T05:18:25;38.17;;;22.35;;
64615;SDS011;51027;42.162;24.754;2022-10-30T05:20:50;32.50;;;19.75;;
64615;SDS011;51027;42.162;24.754;2022-10-30T05:23:16;35.63;;;20.40;;
64615;SDS011;51027;42.162;24.754;2022-10-30T05:25:44;34.78;;;18.77;;
64615;SDS011;51027;42.162;24.754;2022-10-30T05:28:10;30.30;;;16.02;;
64615;SDS011;51027;42.162;24.754;2022-10-30T05:30:35;31.23;;;14.48;;
64615;SDS011;51027;42.162;24.754;2022-10-30T05:33:04;22.67;;;13.07;;
64615;SDS011;51027;42.162;24.754;2022-10-30T05:35:31;26.75;;;11.35;;
64615;SDS011;51027;42.162;24.754;2022-10-30T05:37:58;19.83;;;8.85;;
64615;SDS011;51027;42.162;24.754;2022-10-30T05:40:24;20.88;;;9.82;;
64615;SDS011;51027;42.162;24.754;2022-10-30T05:42:50;20.40;;;9.30;;
64615;SDS011;51027;42.162;24.754;2022-10-30T05:45:16;18.60;;;8.25;;
64615;SDS011;51027;42.162;24.754;2022-10-30T05:47:41;20.85;;;8.48;;
64615;SDS011;51027;42.162;24.754;2022-10-30T05:50:08;19.10;;;9.20;;
64615;SDS011;51027;42.162;24.754;2022-10-30T05:52:36;17.90;;;8.40;;
64615;SDS011;51027;42.162;24.754;2022-10-30T05:55:02;19.00;;;8.48;;
64615;SDS011;51027;42.162;24.754;2022-10-30T05:57:28;18.55;;;9.18;;
64615;SDS011;51027;42.162;24.754;2022-10-30T05:59:54;17.92;;;7.00;;
64615;SDS011;51027;42.162;24.754;2022-10-30T06:02:20;19.13;;;8.43;;
64615;SDS011;51027;42.162;24.754;2022-10-30T06:04:46;20.60;;;7.95;;
64615;SDS011;51027;42.162;24.754;2022-10-30T06:07:11;17.67;;;9.13;;
64615;SDS011;51027;42.162;24.754;2022-10-30T06:09:37;25.70;;;12.25;;
64615;SDS011;51027;42.162;24.754;2022-10-30T06:12:09;23.33;;;11.32;;
64615;SDS011;51027;42.162;24.754;2022-10-30T06:14:35;22.50;;;10.68;;
64615;SDS011;51027;42.162;24.754;2022-10-30T06:17:00;23.20;;;10.38;;
64615;SDS011;51027;42.162;24.754;2022-10-30T06:19:33;20.35;;;8.80;;
64615;SDS011;51027;42.162;24.754;2022-10-30T06:21:59;17.75;;;7.90;;
64615;SDS011;51027;42.162;24.754;2022-10-30T06:24:24;17.95;;;7.70;;
64615;SDS011;51027;42.162;24.754;2022-10-30T06:26:50;17.98;;;7.15;;
64615;SDS011;51027;42.162;24.754;2022-10-30T06:29:16;19.60;;;6.22;;
64615;SDS011;51027;42.162;24.754;2022-10-30T06:31:41;15.27;;;5.85;;
64615;SDS011;51027;42.162;24.754;2022-10-30T06:34:10;17.27;;;5.75;;
64615;SDS011;51027;42.162;24.754;2022-10-30T06:36:39;14.10;;;5.40;;
64615;SDS011;51027;42.162;24.754;2022-10-30T06:39:10;14.77;;;5.43;;
64615;SDS011;51027;42.162;24.754;2022-10-30T06:41:36;15.88;;;6.32;;
64615;SDS011;51027;42.162;24.754;2022-10-30T06:44:02;16.83;;;6.55;;
64615;SDS011;51027;42.162;24.754;2022-10-30T06:46:28;15.57;;;6.38;;
64615;SDS011;51027;42.162;24.754;2022-10-30T06:48:53;16.88;;;6.28;;
64615;SDS011;51027;42.162;24.754;2022-10-30T06:51:19;15.35;;;6.60;;
64615;SDS011;51027;42.162;24.754;2022-10-30T06:53:48;15.43;;;6.05;;
64615;SDS011;51027;42.162;24.754;2022-10-30T06:56:13;17.15;;;6.25;;
64615;SDS011;51027;42.162;24.754;2022-10-30T06:58:39;14.82;;;6.35;;
64615;SDS011;51027;42.162;24.754;2022-10-30T07:01:06;16.38;;;6.45;;
64615;SDS011;51027;42.162;24.754;2022-10-30T07:03:32;20.85;;;7.65;;
64615;SDS011;51027;42.162;24.754;2022-10-30T07:05:58;20.25;;;6.55;;
64615;SDS011;51027;42.162;24.754;2022-10-30T07:08:25;22.52;;;6.80;;
64615;SDS011;51027;42.162;24.754;2022-10-30T07:10:50;16.40;;;7.25;;
64615;SDS011;51027;42.162;24.754;2022-10-30T07:13:16;18.13;;;6.55;;
64615;SDS011;51027;42.162;24.754;2022-10-30T07:15:42;15.45;;;6.72;;
64615;SDS011;51027;42.162;24.754;2022-10-30T07:18:08;18.25;;;7.07;;
64615;SDS011;51027;42.162;24.754;2022-10-30T07:20:34;17.90;;;7.35;;
64615;SDS011;51027;42.162;24.754;2022-10-30T07:23:01;19.85;;;8.10;;
64615;SDS011;51027;42.162;24.754;2022-10-30T07:25:30;18.20;;;8.30;;
64615;SDS011;51027;42.162;24.754;2022-10-30T07:28:04;18.38;;;8.18;;
64615;SDS011;51027;42.162;24.754;2022-10-30T07:36:38;21.95;;;8.27;;
64615;SDS011;51027;42.162;24.754;2022-10-30T07:39:04;17.73;;;8.20;;
64615;SDS011;51027;42.162;24.754;2022-10-30T07:41:30;17.35;;;6.82;;
64615;SDS011;51027;42.162;24.754;2022-10-30T07:43:55;18.20;;;7.93;;
64615;SDS011;51027;42.162;24.754;2022-10-30T07:46:21;17.98;;;7.18;;
64615;SDS011;51027;42.162;24.754;2022-10-30T07:49:25;18.83;;;7.45;;
64615;SDS011;51027;42.162;24.754;2022-10-30T07:51:50;16.95;;;6.85;;
64615;SDS011;51027;42.162;24.754;2022-10-30T07:54:16;17.33;;;6.65;;
64615;SDS011;51027;42.162;24.754;2022-10-30T07:56:42;19.85;;;7.20;;
64615;SDS011;51027;42.162;24.754;2022-10-30T07:59:07;16.60;;;7.13;;
64615;SDS011;51027;42.162;24.754;2022-10-30T08:01:33;21.55;;;7.32;;
64615;SDS011;51027;42.162;24.754;2022-10-30T08:03:58;16.23;;;6.47;;
64615;SDS011;51027;42.162;24.754;2022-10-30T08:06:24;16.63;;;6.57;;
64615;SDS011;51027;42.162;24.754;2022-10-30T08:08:49;18.40;;;6.25;;
64615;SDS011;51027;42.162;24.754;2022-10-30T08:11:21;16.92;;;5.78;;
64615;SDS011;51027;42.162;24.754;2022-10-30T08:13:49;14.88;;;5.78;;
64615;SDS011;51027;42.162;24.754;2022-10-30T08:16:14;14.50;;;6.03;;
64615;SDS011;51027;42.162;24.754;2022-10-30T08:18:42;12.38;;;4.63;;
64615;SDS011;51027;42.162;24.754;2022-10-30T08:21:07;15.48;;;5.45;;
64615;SDS011;51027;42.162;24.754;2022-10-30T08:23:34;14.82;;;4.78;;
64615;SDS011;51027;42.162;24.754;2022-10-30T08:25:59;15.02;;;5.40;;
64615;SDS011;51027;42.162;24.754;2022-10-30T08:28:25;10.38;;;4.25;;
64615;SDS011;51027;42.162;24.754;2022-10-30T08:30:51;10.43;;;4.00;;
64615;SDS011;51027;42.162;24.754;2022-10-30T08:33:16;11.70;;;4.03;;
64615;SDS011;51027;42.162;24.754;2022-10-30T08:35:52;13.40;;;4.20;;
64615;SDS011;51027;42.162;24.754;2022-10-30T08:38:20;11.27;;;3.85;;
64615;SDS011;51027;42.162;24.754;2022-10-30T08:40:46;15.15;;;3.85;;
64615;SDS011;51027;42.162;24.754;2022-10-30T08:43:11;12.30;;;4.07;;
64615;SDS011;51027;42.162;24.754;2022-10-30T08:45:37;11.18;;;3.95;;
64615;SDS011;51027;42.162;24.754;2022-10-30T08:48:03;10.40;;;4.13;;
64615;SDS011;51027;42.162;24.754;2022-10-30T08:50:30;12.77;;;4.20;;
64615;SDS011;51027;42.162;24.754;2022-10-30T08:53:03;11.30;;;4.65;;
64615;SDS011;51027;42.162;24.754;2022-10-30T08:55:34;13.30;;;4.15;;
64615;SDS011;51027;42.162;24.754;2022-10-30T08:58:00;11.25;;;4.10;;
64615;SDS011;51027;42.162;24.754;2022-10-30T09:00:25;11.95;;;3.92;;
64615;SDS011;51027;42.162;24.754;2022-10-30T09:02:52;14.63;;;5.38;;
64615;SDS011;51027;42.162;24.754;2022-10-30T09:05:17;16.58;;;6.68;;
64615;SDS011;51027;42.162;24.754;2022-10-30T09:07:44;15.98;;;4.22;;
64615;SDS011;51027;42.162;24.754;2022-10-30T09:10:10;13.38;;;5.00;;
64615;SDS011;51027;42.162;24.754;2022-10-30T09:12:36;10.98;;;4.13;;
64615;SDS011;51027;42.162;24.754;2022-10-30T09:15:02;9.50;;;3.80;;
64615;SDS011;51027;42.162;24.754;2022-10-30T09:17:28;11.95;;;3.88;;
64615;SDS011;51027;42.162;24.754;2022-10-30T09:19:53;9.05;;;3.70;;
64615;SDS011;51027;42.162;24.754;2022-10-30T09:22:19;11.55;;;3.92;;
64615;SDS011;51027;42.162;24.754;2022-10-30T09:24:44;9.27;;;4.00;;
64615;SDS011;51027;42.162;24.754;2022-10-30T09:27:09;10.57;;;3.50;;
64615;SDS011;51027;42.162;24.754;2022-10-30T09:29:35;10.25;;;3.55;;
64615;SDS011;51027;42.162;24.754;2022-10-30T09:32:01;9.10;;;3.20;;
64615;SDS011;51027;42.162;24.754;2022-10-30T09:34:29;11.75;;;3.78;;
64615;SDS011;51027;42.162;24.754;2022-10-30T09:36:55;9.40;;;3.53;;
64615;SDS011;51027;42.162;24.754;2022-10-30T09:39:20;9.05;;;3.40;;
64615;SDS011;51027;42.162;24.754;2022-10-30T09:49:59;10.88;;;3.53;;
64615;SDS011;51027;42.162;24.754;2022-10-30T10:06:19;7.65;;;3.13;;
64615;SDS011;51027;42.162;24.754;2022-10-30T10:11:17;11.90;;;3.53;;
64615;SDS011;51027;42.162;24.754;2022-10-30T10:13:59;8.93;;;3.30;;
64615;SDS011;51027;42.162;24.754;2022-10-30T10:16:33;13.27;;;3.90;;
64615;SDS011;51027;42.162;24.754;2022-10-30T10:19:21;11.02;;;3.90;;
64615;SDS011;51027;42.162;24.754;2022-10-30T10:21:55;14.27;;;5.30;;
64615;SDS011;51027;42.162;24.754;2022-10-30T10:24:32;10.77;;;4.10;;
64615;SDS011;51027;42.162;24.754;2022-10-30T10:27:15;11.68;;;3.78;;
64615;SDS011;51027;42.162;24.754;2022-10-30T10:44:13;15.05;;;5.45;;
64615;SDS011;51027;42.162;24.754;2022-10-30T10:52:10;16.58;;;6.82;;
64615;SDS011;51027;42.162;24.754;2022-10-30T10:54:51;16.65;;;7.22;;
64615;SDS011;51027;42.162;24.754;2022-10-30T10:57:28;16.35;;;7.25;;
64615;SDS011;51027;42.162;24.754;2022-10-30T11:00:00;16.25;;;6.43;;
64615;SDS011;51027;42.162;24.754;2022-10-30T11:05:50;14.70;;;6.18;;
64615;SDS011;51027;42.162;24.754;2022-10-30T11:08:26;16.35;;;6.47;;
64615;SDS011;51027;42.162;24.754;2022-10-30T11:10:57;14.40;;;4.65;;
64615;SDS011;51027;42.162;24.754;2022-10-30T11:13:26;12.80;;;4.82;;
64615;SDS011;51027;42.162;24.754;2022-10-30T11:18:19;14.00;;;4.70;;
64615;SDS011;51027;42.162;24.754;2022-10-30T11:21:02;12.35;;;4.53;;
64615;SDS011;51027;42.162;24.754;2022-10-30T11:23:36;11.27;;;3.63;;
64615;SDS011;51027;42.162;24.754;2022-10-30T11:28:42;8.85;;;3.40;;
64615;SDS011;51027;42.162;24.754;2022-10-30T11:31:18;11.35;;;3.53;;
64615;SDS011;51027;42.162;24.754;2022-10-30T11:36:49;14.68;;;5.55;;
64615;SDS011;51027;42.162;24.754;2022-10-30T11:41:58;8.73;;;3.05;;
64615;SDS011;51027;42.162;24.754;2022-10-30T11:44:41;11.45;;;3.20;;
64615;SDS011;51027;42.162;24.754;2022-10-30T11:47:09;8.43;;;2.80;;
64615;SDS011;51027;42.162;24.754;2022-10-30T11:49:46;6.43;;;2.67;;
64615;SDS011;51027;42.162;24.754;2022-10-30T11:52:19;10.77;;;3.00;;
64615;SDS011;51027;42.162;24.754;2022-10-30T11:54:54;6.75;;;2.60;;
64615;SDS011;51027;42.162;24.754;2022-10-30T11:57:23;8.82;;;2.63;;
64615;SDS011;51027;42.162;24.754;2022-10-30T11:59:59;10.65;;;3.17;;
64615;SDS011;51027;42.162;24.754;2022-10-30T12:02:28;10.35;;;3.38;;
64615;SDS011;51027;42.162;24.754;2022-10-30T12:05:12;9.68;;;3.38;;
64615;SDS011;51027;42.162;24.754;2022-10-30T12:07:52;10.50;;;3.35;;
64615;SDS011;51027;42.162;24.754;2022-10-30T12:10:25;9.43;;;3.25;;
64615;SDS011;51027;42.162;24.754;2022-10-30T12:12:52;8.85;;;2.72;;
64615;SDS011;51027;42.162;24.754;2022-10-30T12:15:19;10.20;;;3.13;;
64615;SDS011;51027;42.162;24.754;2022-10-30T12:20:16;6.97;;;2.70;;
64615;SDS011;51027;42.162;24.754;2022-10-30T12:22:42;9.80;;;3.38;;
64615;SDS011;51027;42.162;24.754;2022-10-30T12:25:19;9.73;;;2.83;;
64615;SDS011;51027;42.162;24.754;2022-10-30T12:27:59;11.75;;;4.63;;
64615;SDS011;51027;42.162;24.754;2022-10-30T12:30:31;10.05;;;3.00;;
64615;SDS011;51027;42.162;24.754;2022-10-30T12:33:13;7.57;;;3.03;;
64615;SDS011;51027;42.162;24.754;2022-10-30T12:35:48;8.73;;;2.53;;
64615;SDS011;51027;42.162;24.754;2022-10-30T12:38:29;6.60;;;2.40;;
64615;SDS011;51027;42.162;24.754;2022-10-30T12:43:48;9.90;;;3.05;;
64615;SDS011;51027;42.162;24.754;2022-10-30T12:51:57;7.00;;;2.83;;
64615;SDS011;51027;42.162;24.754;2022-10-30T12:57:27;6.60;;;2.15;;
64615;SDS011;51027;42.162;24.754;2022-10-30T13:00:06;7.13;;;2.65;;
64615;SDS011;51027;42.162;24.754;2022-10-30T13:13:37;6.75;;;2.55;;
64615;SDS011;51027;42.162;24.754;2022-10-30T13:16:17;7.97;;;2.53;;
64615;SDS011;51027;42.162;24.754;2022-10-30T13:18:50;8.98;;;3.20;;
64615;SDS011;51027;42.162;24.754;2022-10-30T13:22:06;19.63;;;7.03;;
64615;SDS011;51027;42.162;24.754;2022-10-30T13:26:50;11.93;;;3.92;;
64615;SDS011;51027;42.162;24.754;2022-10-30T13:29:28;13.82;;;3.22;;
64615;SDS011;51027;42.162;24.754;2022-10-30T13:37:05;6.40;;;2.50;;
64615;SDS011;51027;42.162;24.754;2022-10-30T13:39:36;7.03;;;2.80;;
64615;SDS011;51027;42.162;24.754;2022-10-30T13:52:38;10.10;;;3.42;;
64615;SDS011;51027;42.162;24.754;2022-10-30T13:55:26;9.52;;;2.80;;
64615;SDS011;51027;42.162;24.754;2022-10-30T14:00:50;7.95;;;2.63;;
64615;SDS011;51027;42.162;24.754;2022-10-30T14:06:09;10.18;;;3.90;;
64615;SDS011;51027;42.162;24.754;2022-10-30T14:08:40;15.45;;;3.78;;
64615;SDS011;51027;42.162;24.754;2022-10-30T14:11:12;11.05;;;3.67;;
64615;SDS011;51027;42.162;24.754;2022-10-30T14:14:23;10.23;;;3.53;;
64615;SDS011;51027;42.162;24.754;2022-10-30T14:22:30;11.88;;;4.10;;
64615;SDS011;51027;42.162;24.754;2022-10-30T14:24:57;10.27;;;3.63;;
64615;SDS011;51027;42.162;24.754;2022-10-30T14:27:27;11.88;;;3.42;;
64615;SDS011;51027;42.162;24.754;2022-10-30T14:29:56;13.82;;;3.85;;
64615;SDS011;51027;42.162;24.754;2022-10-30T14:37:14;15.35;;;4.28;;
64615;SDS011;51027;42.162;24.754;2022-10-30T14:39:43;12.77;;;4.07;;
64615;SDS011;51027;42.162;24.754;2022-10-30T14:58:43;14.73;;;4.18;;
64615;SDS011;51027;42.162;24.754;2022-10-30T15:15:27;14.27;;;5.10;;
64615;SDS011;51027;42.162;24.754;2022-10-30T15:17:54;14.15;;;4.53;;
64615;SDS011;51027;42.162;24.754;2022-10-30T15:20:24;16.00;;;4.85;;
64615;SDS011;51027;42.162;24.754;2022-10-30T15:22:51;16.60;;;5.20;;
64615;SDS011;51027;42.162;24.754;2022-10-30T15:25:21;20.70;;;6.15;;
64615;SDS011;51027;42.162;24.754;2022-10-30T15:27:51;18.70;;;6.82;;
64615;SDS011;51027;42.162;24.754;2022-10-30T15:30:21;18.23;;;6.47;;
64615;SDS011;51027;42.162;24.754;2022-10-30T15:32:48;17.92;;;6.05;;
64615;SDS011;51027;42.162;24.754;2022-10-30T15:38:01;20.25;;;7.10;;
64615;SDS011;51027;42.162;24.754;2022-10-30T15:40:31;20.38;;;7.68;;
64615;SDS011;51027;42.162;24.754;2022-10-30T15:42:59;21.40;;;6.88;;
64615;SDS011;51027;42.162;24.754;2022-10-30T15:45:31;21.80;;;7.30;;
64615;SDS011;51027;42.162;24.754;2022-10-30T15:50:33;19.65;;;8.27;;
64615;SDS011;51027;42.162;24.754;2022-10-30T15:52:59;21.35;;;8.32;;
64615;SDS011;51027;42.162;24.754;2022-10-30T15:55:27;24.55;;;8.52;;
64615;SDS011;51027;42.162;24.754;2022-10-30T16:00:23;21.05;;;8.13;;
64615;SDS011;51027;42.162;24.754;2022-10-30T16:03:24;20.67;;;7.77;;
64615;SDS011;51027;42.162;24.754;2022-10-30T16:05:43;21.85;;;7.90;;
64615;SDS011;51027;42.162;24.754;2022-10-30T16:08:19;18.58;;;7.57;;
64615;SDS011;51027;42.162;24.754;2022-10-30T16:10:47;18.77;;;7.50;;
64615;SDS011;51027;42.162;24.754;2022-10-30T16:13:16;21.50;;;8.57;;
64615;SDS011;51027;42.162;24.754;2022-10-30T16:15:43;19.27;;;7.78;;
64615;SDS011;51027;42.162;24.754;2022-10-30T16:21:44;19.20;;;7.35;;
64615;SDS011;51027;42.162;24.754;2022-10-30T16:37:50;22.05;;;8.88;;
64615;SDS011;51027;42.162;24.754;2022-10-30T16:42:51;33.95;;;13.40;;
64615;SDS011;51027;42.162;24.754;2022-10-30T16:48:37;24.92;;;10.65;;
64615;SDS011;51027;42.162;24.754;2022-10-30T16:51:30;26.05;;;9.55;;
64615;SDS011;51027;42.162;24.754;2022-10-30T16:54:34;23.65;;;10.32;;
64615;SDS011;51027;42.162;24.754;2022-10-30T17:01:28;19.95;;;8.90;;
64615;SDS011;51027;42.162;24.754;2022-10-30T17:34:03;29.85;;;13.85;;
64615;SDS011;51027;42.162;24.754;2022-10-30T17:36:41;34.78;;;14.07;;
64615;SDS011;51027;42.162;24.754;2022-10-30T17:39:11;20.05;;;9.30;;
64615;SDS011;51027;42.162;24.754;2022-10-30T17:41:42;25.92;;;12.23;;
64615;SDS011;51027;42.162;24.754;2022-10-30T17:44:27;28.20;;;12.38;;
64615;SDS011;51027;42.162;24.754;2022-10-30T17:47:19;23.98;;;11.40;;
64615;SDS011;51027;42.162;24.754;2022-10-30T17:49:48;23.48;;;10.75;;
64615;SDS011;51027;42.162;24.754;2022-10-30T17:52:49;25.55;;;11.07;;
64615;SDS011;51027;42.162;24.754;2022-10-30T17:55:39;25.30;;;10.80;;
64615;SDS011;51027;42.162;24.754;2022-10-30T17:58:20;25.83;;;10.60;;
64615;SDS011;51027;42.162;24.754;2022-10-30T18:00:52;21.00;;;9.38;;
64615;SDS011;51027;42.162;24.754;2022-10-30T18:03:25;22.15;;;9.63;;
64615;SDS011;51027;42.162;24.754;2022-10-30T18:11:47;24.42;;;11.75;;
64615;SDS011;51027;42.162;24.754;2022-10-30T18:14:33;19.77;;;5.97;;
64615;SDS011;51027;42.162;24.754;2022-10-30T18:17:43;17.23;;;6.30;;
64615;SDS011;51027;42.162;24.754;2022-10-30T18:20:33;18.10;;;6.97;;
64615;SDS011;51027;42.162;24.754;2022-10-30T18:26:04;16.50;;;5.70;;
64615;SDS011;51027;42.162;24.754;2022-10-30T18:28:42;21.40;;;8.13;;
64615;SDS011;51027;42.162;24.754;2022-10-30T18:31:15;17.45;;;7.18;;
64615;SDS011;51027;42.162;24.754;2022-10-30T18:34:13;19.58;;;7.22;;
64615;SDS011;51027;42.162;24.754;2022-10-30T18:39:51;19.25;;;7.85;;
64615;SDS011;51027;42.162;24.754;2022-10-30T18:42:17;25.42;;;8.15;;
64615;SDS011;51027;42.162;24.754;2022-10-30T18:44:54;19.05;;;7.40;;
64615;SDS011;51027;42.162;24.754;2022-10-30T18:47:29;20.88;;;7.25;;
64615;SDS011;51027;42.162;24.754;2022-10-30T18:49:58;20.90;;;8.63;;
64615;SDS011;51027;42.162;24.754;2022-10-30T19:00:50;21.60;;;8.10;;
64615;SDS011;51027;42.162;24.754;2022-10-30T19:03:16;22.73;;;9.07;;
64615;SDS011;51027;42.162;24.754;2022-10-30T19:06:15;18.63;;;7.88;;
64615;SDS011;51027;42.162;24.754;2022-10-30T19:08:43;24.55;;;8.27;;
64615;SDS011;51027;42.162;24.754;2022-10-30T19:11:11;19.30;;;8.05;;